臺中航空站 - ATIS

METAR RCMQ 200630Z 35010KT 9999 FEW010 BKN060 23/14 Q1014 NOSIG RMK A2996=

站台狀態:Online
最後更新:2022-01-20 21:30:01